Time;durP1;ratioP1;P1;durP2;ratioP2;P2;SDS_P1;SDS_P2;PMS_P1;PMS_P2;Temp;Humidity;BMP_temperature;BMP_pressure;BME280_temperature;BME280_humidity;BME280_pressure;Samples;Min_cycle;Max_cycle;Signal;HPM_P1;HPM_P2
2022/01/23 00:02:15;;;;;;;3.83;3.30;;;;;;;3.67;100.00;102928.66;5042998;28;20044;-51
2022/01/23 00:04:41;;;;;;;6.32;2.45;;;;;;;3.65;100.00;102925.28;5040706;28;20043;-55
2022/01/23 00:07:09;;;;;;;4.35;2.80;;;;;;;3.62;100.00;102930.69;5039099;28;20024;-54
2022/01/23 00:09:36;;;;;;;6.40;2.90;;;;;;;3.59;100.00;102928.25;5041550;28;20374;-53
2022/01/23 00:12:06;;;;;;;3.70;2.92;;;;;;;3.58;100.00;102931.78;5042277;28;20029;-53
2022/01/23 00:19:41;;;;;;;4.82;3.33;;;;;;;3.57;100.00;102927.47;5041899;28;20055;-51
2022/01/23 00:22:09;;;;;;;3.70;2.47;;;;;;;3.55;100.00;102918.84;5041394;28;20140;-50
2022/01/23 00:32:45;;;;;;;4.93;4.18;;;;;;;3.50;100.00;102926.97;5040088;28;20384;-50
2022/01/23 00:35:10;;;;;;;2.95;2.25;;;;;;;3.48;100.00;102926.22;5040920;28;20033;-49
2022/01/23 00:37:36;;;;;;;3.53;2.75;;;;;;;3.48;100.00;102923.59;5040228;28;20025;-56
2022/01/23 00:40:02;;;;;;;4.80;3.33;;;;;;;3.49;100.00;102925.28;5041818;28;20055;-53
2022/01/23 00:42:28;;;;;;;5.20;3.00;;;;;;;3.48;100.00;102925.34;5041082;28;20530;-52
2022/01/23 00:45:03;;;;;;;5.30;2.75;;;;;;;3.46;100.00;102922.00;5038843;28;20040;-53
2022/01/23 00:47:28;;;;;;;4.85;3.08;;;;;;;3.46;100.00;102911.50;5037472;28;20044;-53
2022/01/23 00:49:53;;;;;;;5.32;3.15;;;;;;;3.44;100.00;102922.06;5041207;28;20106;-51
2022/01/23 00:52:19;;;;;;;6.50;3.75;;;;;;;3.45;100.00;102928.16;5039206;28;20065;-51
2022/01/23 00:54:44;;;;;;;3.20;2.92;;;;;;;3.45;100.00;102917.66;5040115;28;20137;-50
2022/01/23 00:57:10;;;;;;;4.13;3.60;;;;;;;3.46;100.00;102914.13;5041166;28;20394;-52
2022/01/23 00:59:35;;;;;;;5.82;4.13;;;;;;;3.49;100.00;102909.56;5039310;28;20123;-48
2022/01/23 01:02:00;;;;;;;3.55;3.28;;;;;;;3.52;100.00;102911.16;5041273;28;20032;-54
2022/01/23 01:04:26;;;;;;;3.35;2.90;;;;;;;3.49;100.00;102901.69;5040436;28;20059;-51
2022/01/23 01:06:52;;;;;;;4.25;3.38;;;;;;;3.46;100.00;102911.50;5038805;28;20036;-50
2022/01/23 01:09:18;;;;;;;5.32;3.67;;;;;;;3.43;100.00;102899.41;5036792;28;20040;-52
2022/01/23 01:14:28;;;;;;;4.97;3.53;;;;;;;3.43;100.00;102903.78;5040721;28;20131;-50
2022/01/23 01:17:01;;;;;;;10.73;3.42;;;;;;;3.40;100.00;102901.34;5038333;28;20095;-51
2022/01/23 01:30:55;;;;;;;5.05;3.38;;;;;;;3.39;100.00;102895.25;5035622;28;20086;-54
2022/01/23 01:35:54;;;;;;;4.03;3.47;;;;;;;3.34;100.00;102893.81;5039739;28;20029;-54
2022/01/23 01:38:20;;;;;;;4.68;3.13;;;;;;;3.32;100.00;102893.06;5040229;28;20040;-50
2022/01/23 01:40:46;;;;;;;2.83;2.55;;;;;;;3.31;100.00;102894.84;5039061;28;20025;-54
2022/01/23 01:43:11;;;;;;;3.38;2.67;;;;;;;3.32;100.00;102896.50;5039281;28;20033;-51
2022/01/23 01:45:39;;;;;;;5.28;3.85;;;;;;;3.31;100.00;102894.00;5039173;28;20040;-53
2022/01/23 01:48:04;;;;;;;3.53;3.03;;;;;;;3.28;100.00;102887.97;5037337;28;20033;-54
2022/01/23 01:50:32;;;;;;;3.28;2.97;;;;;;;3.28;100.00;102895.84;5038387;28;20036;-53
2022/01/23 01:52:58;;;;;;;7.97;3.78;;;;;;;3.29;100.00;102888.81;5040375;28;20104;-53
2022/01/23 01:55:28;;;;;;;4.07;2.80;;;;;;;3.28;100.00;102887.97;5040404;28;20486;-52
2022/01/23 01:58:01;;;;;;;3.83;2.67;;;;;;;3.27;100.00;102883.66;5042053;28;20387;-53
2022/01/23 02:08:45;;;;;;;3.42;2.55;;;;;;;3.22;100.00;102874.34;5039868;28;20048;-54
2022/01/23 02:17:12;;;;;;;2.55;2.35;;;;;;;3.19;100.00;102877.16;5041965;28;20045;-51
2022/01/23 02:55:09;;;;;;;3.80;2.65;;;;;;;3.11;100.00;102858.38;5041418;28;20393;-52
2022/01/23 02:57:51;;;;;;;4.57;3.08;;;;;;;3.12;100.00;102866.13;5045593;28;20422;-53
2022/01/23 03:00:19;;;;;;;2.83;2.53;;;;;;;3.13;100.00;102864.38;5041368;28;20040;-54
2022/01/23 03:02:51;;;;;;;3.55;3.05;;;;;;;3.11;100.00;102859.22;5037809;28;20079;-51
2022/01/23 03:08:02;;;;;;;2.85;2.58;;;;;;;3.08;100.00;102856.78;5025367;28;20042;-52
2022/01/23 03:10:34;;;;;;;3.40;3.10;;;;;;;3.05;100.00;102852.53;5043148;28;20036;-54
2022/01/23 03:13:40;;;;;;;4.03;3.28;;;;;;;3.05;100.00;102846.47;5041192;28;20033;-54
2022/01/23 03:16:17;;;;;;;3.95;3.10;;;;;;;3.04;100.00;102842.97;5039329;28;20091;-51
2022/01/23 03:24:24;;;;;;;7.30;3.92;;;;;;;3.09;100.00;102841.88;5041657;28;20116;-53
2022/01/23 03:29:38;;;;;;;5.13;3.70;;;;;;;3.03;100.00;102835.22;5042423;28;20021;-52
2022/01/23 03:32:19;;;;;;;3.38;2.53;;;;;;;3.02;100.00;102839.59;5038787;28;20049;-52
2022/01/23 03:34:45;;;;;;;3.95;2.97;;;;;;;3.03;100.00;102840.44;5039772;28;20033;-52
2022/01/23 03:37:10;;;;;;;6.88;3.70;;;;;;;3.03;100.00;102838.66;5039337;28;20093;-51
2022/01/23 03:39:35;;;;;;;3.40;3.03;;;;;;;3.04;100.00;102844.75;5040836;28;20040;-50
2022/01/23 03:42:01;;;;;;;3.28;2.83;;;;;;;3.05;100.00;102847.28;5043769;28;20115;-55
2022/01/23 03:44:26;;;;;;;4.53;3.08;;;;;;;3.08;100.00;102843.66;5035560;28;20040;-51
2022/01/23 03:49:34;;;;;;;5.22;3.88;;;;;;;3.07;100.00;102852.44;5042339;28;20460;-54
2022/01/23 03:52:06;;;;;;;7.32;3.42;;;;;;;3.04;100.00;102847.38;5037199;28;20025;-52
2022/01/23 03:54:32;;;;;;;3.92;3.08;;;;;;;3.02;100.00;102847.47;5039906;28;20439;-52
2022/01/23 03:57:00;;;;;;;4.18;3.15;;;;;;;2.99;100.00;102847.59;5043336;28;20037;-53
2022/01/23 03:59:26;;;;;;;3.38;3.15;;;;;;;2.96;100.00;102850.41;5024697;28;20029;-53
2022/01/23 04:01:52;;;;;;;7.20;3.58;;;;;;;2.95;100.00;102843.47;5040532;28;20087;-51
2022/01/23 04:06:52;;;;;;;4.65;2.47;;;;;;;2.96;100.00;102841.69;5041835;28;20025;-52
2022/01/23 04:09:17;;;;;;;6.03;3.42;;;;;;;2.94;100.00;102828.66;5039599;28;20100;-49
2022/01/23 04:11:43;;;;;;;4.05;3.25;;;;;;;2.96;100.00;102832.06;5042572;28;20112;-52
2022/01/23 04:14:11;;;;;;;4.15;2.60;;;;;;;2.99;100.00;102831.03;5036076;28;20471;-52
2022/01/23 04:45:16;;;;;;;5.80;5.15;;;;;;;2.98;100.00;102837.22;5038970;28;20079;-54
2022/01/23 05:00:21;;;;;;;3.92;3.42;;;;;;;2.98;100.00;102832.81;5043577;28;20072;-50
2022/01/23 05:05:21;;;;;;;4.05;3.60;;;;;;;2.98;100.00;102821.50;5037698;28;20049;-52
2022/01/23 05:07:47;;;;;;;5.97;3.55;;;;;;;2.96;100.00;102828.59;5038325;28;20063;-56
2022/01/23 05:10:13;;;;;;;5.20;3.20;;;;;;;2.92;100.00;102822.69;5039769;28;20033;-51
2022/01/23 05:12:39;;;;;;;4.45;3.60;;;;;;;2.91;100.00;102826.22;5035672;28;20555;-51
2022/01/23 05:15:07;;;;;;;5.18;3.90;;;;;;;2.90;100.00;102826.31;5028425;28;20075;-51
2022/01/23 05:17:34;;;;;;;3.63;3.30;;;;;;;2.88;100.00;102818.53;5040551;28;20029;-53
2022/01/23 05:19:59;;;;;;;5.72;3.53;;;;;;;2.89;100.00;102822.00;5038269;28;20039;-53
2022/01/23 05:22:36;;;;;;;6.93;4.88;;;;;;;2.89;100.00;102819.38;5040931;28;20034;-51
2022/01/23 05:27:28;;;;;;;4.60;3.33;;;;;;;2.90;100.00;102823.69;5036825;28;20030;-52
2022/01/23 05:29:54;;;;;;;7.38;4.80;;;;;;;2.88;100.00;102815.91;5042960;28;20367;-51
2022/01/23 05:32:21;;;;;;;5.05;3.42;;;;;;;2.92;100.00;102811.34;5041962;28;20410;-50
2022/01/23 05:34:48;;;;;;;6.90;5.05;;;;;;;2.97;100.00;102812.81;5042403;28;20051;-52
2022/01/23 05:37:13;;;;;;;8.73;3.33;;;;;;;2.99;100.00;102807.47;5042721;28;20360;-52
2022/01/23 05:39:38;;;;;;;5.05;3.50;;;;;;;2.98;100.00;102801.38;5045963;28;20389;-52
2022/01/23 05:42:08;;;;;;;5.72;4.72;;;;;;;2.95;100.00;102798.94;5045771;28;20146;-52
2022/01/23 05:44:39;;;;;;;10.32;5.00;;;;;;;2.92;100.00;102811.34;5045095;28;20057;-51
2022/01/23 05:47:06;;;;;;;7.15;3.83;;;;;;;2.90;100.00;102805.34;5053182;28;20036;-51
2022/01/23 05:49:32;;;;;;;3.95;3.15;;;;;;;2.89;100.00;102798.41;5045813;28;20055;-52
2022/01/23 05:51:58;;;;;;;7.95;4.68;;;;;;;2.89;100.00;102812.38;5049141;28;20493;-50
2022/01/23 05:54:23;;;;;;;5.88;4.32;;;;;;;2.88;100.00;102808.06;5052049;28;20044;-51
2022/01/23 05:56:49;;;;;;;6.38;4.07;;;;;;;2.87;100.00;102802.91;5046004;28;20025;-51
2022/01/23 05:59:16;;;;;;;5.75;4.93;;;;;;;2.84;100.00;102796.91;5051356;28;20028;-52
2022/01/23 06:01:42;;;;;;;4.18;3.45;;;;;;;2.87;100.00;102805.53;5052274;28;20326;-50
2022/01/23 06:04:08;;;;;;;5.88;4.72;;;;;;;2.86;100.00;102809.06;5048398;28;20482;-56
2022/01/23 06:06:33;;;;;;;5.50;4.07;;;;;;;2.87;100.00;102808.16;5022851;28;20079;-50
2022/01/23 06:08:59;;;;;;;6.53;4.78;;;;;;;2.87;100.00;102809.00;5048192;28;20063;-51
2022/01/23 06:11:24;;;;;;;6.45;4.95;;;;;;;2.88;100.00;102805.44;5054798;28;20035;-54
2022/01/23 06:13:50;;;;;;;9.45;4.72;;;;;;;2.90;100.00;102818.47;5049042;28;20580;-48
2022/01/23 06:16:15;;;;;;;9.52;4.65;;;;;;;2.90;100.00;102810.59;5041452;28;20120;-54
2022/01/23 06:18:41;;;;;;;5.45;4.78;;;;;;;2.90;100.00;102803.56;5046392;28;20486;-51
2022/01/23 06:21:07;;;;;;;8.18;4.72;;;;;;;2.90;100.00;102808.81;5051734;28;20037;-53
2022/01/23 06:23:33;;;;;;;8.13;4.15;;;;;;;2.87;100.00;102806.38;5058464;28;20427;-50
2022/01/23 06:25:59;;;;;;;5.63;3.78;;;;;;;2.87;100.00;102808.16;5050242;28;20031;-52
2022/01/23 06:28:38;;;;;;;6.30;5.15;;;;;;;2.87;100.00;102806.38;5046069;28;20032;-48
2022/01/23 06:31:03;;;;;;;9.43;5.47;;;;;;;2.87;100.00;102800.28;5053434;28;20499;-48
2022/01/23 06:33:29;;;;;;;6.95;4.75;;;;;;;2.84;100.00;102807.38;5045434;28;20094;-52
2022/01/23 06:35:55;;;;;;;6.90;5.25;;;;;;;2.83;100.00;102810.91;5046289;28;20041;-54
2022/01/23 06:38:20;;;;;;;5.40;4.20;;;;;;;2.84;100.00;102811.78;5046247;28;20025;-49
2022/01/23 06:40:45;;;;;;;6.93;5.32;;;;;;;2.86;100.00;102816.94;5043931;28;20421;-53
2022/01/23 06:43:11;;;;;;;8.15;4.65;;;;;;;2.86;100.00;102814.31;5046131;28;20058;-52
2022/01/23 06:45:36;;;;;;;9.30;4.80;;;;;;;2.87;100.00;102805.53;5049497;28;20025;-49
2022/01/23 06:48:02;;;;;;;5.97;4.47;;;;;;;2.96;100.00;102810.25;5054891;28;20508;-52
2022/01/23 06:50:27;;;;;;;5.90;4.40;;;;;;;3.01;100.00;102814.31;5056905;28;20057;-53
2022/01/23 06:52:53;;;;;;;5.20;4.18;;;;;;;3.08;100.00;102808.75;5047543;28;20470;-51
2022/01/23 06:55:19;;;;;;;6.88;4.68;;;;;;;3.12;100.00;102816.34;5051648;28;20425;-52
2022/01/23 06:57:44;;;;;;;4.35;3.72;;;;;;;3.11;100.00;102819.91;5045452;28;20508;-53
2022/01/23 07:00:10;;;;;;;5.60;4.63;;;;;;;3.10;100.00;102823.47;5054704;28;20033;-52
2022/01/23 07:02:35;;;;;;;7.68;4.70;;;;;;;3.07;100.00;102818.34;5040851;28;20111;-48
2022/01/23 07:05:00;;;;;;;6.85;4.30;;;;;;;3.06;100.00;102816.69;5048690;28;20032;-50
2022/01/23 07:07:26;;;;;;;6.95;5.35;;;;;;;3.04;100.00;102821.16;5039014;28;20807;-53
2022/01/23 07:09:51;;;;;;;7.80;4.80;;;;;;;3.01;100.00;102822.16;5044486;28;20029;-54
2022/01/23 07:12:17;;;;;;;6.35;4.93;;;;;;;3.00;100.00;102822.28;5044876;28;20033;-48
2022/01/23 07:14:42;;;;;;;5.78;4.82;;;;;;;3.00;100.00;102820.50;5047164;28;20033;-51
2022/01/23 07:17:07;;;;;;;6.03;4.57;;;;;;;3.06;100.00;102824.53;5040634;28;20154;-55
2022/01/23 07:19:33;;;;;;;7.03;5.07;;;;;;;3.06;100.00;102821.91;5041938;28;20040;-52
2022/01/23 07:21:58;;;;;;;7.75;5.35;;;;;;;2.98;100.00;102819.72;5046484;28;20025;-53
2022/01/23 07:24:24;;;;;;;8.05;5.47;;;;;;;2.93;100.00;102827.00;5041153;28;20057;-54
2022/01/23 07:26:49;;;;;;;8.90;5.85;;;;;;;2.91;100.00;102830.63;5045097;28;20044;-48
2022/01/23 07:29:16;;;;;;;5.97;4.22;;;;;;;2.89;100.00;102835.09;5038557;28;20472;-54
2022/01/23 07:31:57;;;;;;;6.35;4.35;;;;;;;2.86;100.00;102841.34;5041210;28;20072;-53
2022/01/23 07:34:24;;;;;;;6.82;4.53;;;;;;;2.86;100.00;102836.09;5040406;28;20100;-52
2022/01/23 07:36:50;;;;;;;9.23;4.72;;;;;;;2.85;100.00;102839.66;5038880;28;20029;-51
2022/01/23 07:39:15;;;;;;;4.40;4.00;;;;;;;2.85;100.00;102829.19;5039469;28;20078;-51
2022/01/23 07:41:40;;;;;;;5.50;4.70;;;;;;;2.87;100.00;102831.75;5034560;28;20238;-52
2022/01/23 07:44:06;;;;;;;6.88;5.57;;;;;;;2.88;100.00;102836.03;5036244;28;20025;-51
2022/01/23 07:46:32;;;;;;;4.18;3.72;;;;;;;2.92;100.00;102846.28;5041364;28;20110;-53
2022/01/23 07:48:57;;;;;;;7.03;5.18;;;;;;;2.94;100.00;102848.78;5047555;28;20437;-54
2022/01/23 07:51:23;;;;;;;6.13;4.82;;;;;;;2.97;100.00;102848.63;5044507;28;20417;-50
2022/01/23 07:53:48;;;;;;;6.50;4.82;;;;;;;2.97;100.00;102852.13;5039023;28;20047;-52
2022/01/23 07:56:14;;;;;;;6.97;4.78;;;;;;;2.99;100.00;102854.63;5040363;28;20048;-51
2022/01/23 07:58:39;;;;;;;8.45;4.85;;;;;;;2.98;100.00;102851.19;5040056;28;20040;-49
2022/01/23 08:01:05;;;;;;;4.95;3.60;;;;;;;2.97;100.00;102859.97;5042326;28;20107;-52
2022/01/23 08:03:30;;;;;;;9.52;5.93;;;;;;;2.98;100.00;102856.41;5039361;28;20484;-50
2022/01/23 08:05:56;;;;;;;6.57;4.25;;;;;;;3.02;100.00;102855.34;5039227;28;20040;-51
2022/01/23 08:08:21;;;;;;;6.82;4.13;;;;;;;3.05;100.00;102855.16;5035746;28;20061;-51
2022/01/23 08:10:46;;;;;;;8.63;4.82;;;;;;;3.09;100.00;102860.22;5038941;28;20025;-53
2022/01/23 08:13:12;;;;;;;7.22;4.70;;;;;;;3.08;100.00;102862.00;5040607;28;20033;-53
2022/01/23 08:15:37;;;;;;;6.60;3.90;;;;;;;3.05;100.00;102863.03;5050431;28;20039;-51
2022/01/23 08:18:05;;;;;;;6.97;4.82;;;;;;;3.04;100.00;102857.84;5041715;28;20037;-50
2022/01/23 08:20:31;;;;;;;5.72;4.55;;;;;;;3.06;100.00;102862.09;5041738;28;20127;-52
2022/01/23 08:22:58;;;;;;;5.68;3.97;;;;;;;3.06;100.00;102863.88;5044636;28;20219;-54
2022/01/23 08:25:24;;;;;;;7.30;4.53;;;;;;;3.10;100.00;102867.16;5044011;28;20105;-52
2022/01/23 08:27:49;;;;;;;6.15;3.95;;;;;;;3.10;100.00;102864.53;5041358;28;20256;-52
2022/01/23 08:30:15;;;;;;;6.25;4.45;;;;;;;3.12;100.00;102858.28;5042789;28;20071;-50
2022/01/23 08:32:40;;;;;;;5.22;4.38;;;;;;;3.15;100.00;102865.13;5042006;28;20032;-51
2022/01/23 08:35:06;;;;;;;7.80;4.13;;;;;;;3.14;100.00;102858.19;5037939;28;20593;-51
2022/01/23 08:37:32;;;;;;;5.47;4.40;;;;;;;3.12;100.00;102874.00;5038483;28;20064;-51
2022/01/23 08:39:58;;;;;;;9.52;5.68;;;;;;;3.11;100.00;102867.06;5037317;28;20038;-55
2022/01/23 08:42:23;;;;;;;6.53;4.15;;;;;;;3.11;100.00;102867.06;5032939;28;20582;-51
2022/01/23 08:44:50;;;;;;;6.13;3.95;;;;;;;3.11;100.00;102872.31;5042558;28;20029;-56
2022/01/23 08:47:17;;;;;;;6.70;4.13;;;;;;;3.10;100.00;102873.25;5038507;28;20160;-52
2022/01/23 08:49:46;;;;;;;8.65;4.65;;;;;;;3.08;100.00;102869.88;5041352;28;20476;-52
2022/01/23 08:52:16;;;;;;;6.13;4.70;;;;;;;3.06;100.00;102864.69;5037529;28;20408;-53
2022/01/23 08:54:43;;;;;;;5.70;4.13;;;;;;;3.08;100.00;102859.38;5043267;28;20048;-52
2022/01/23 08:57:09;;;;;;;7.20;4.97;;;;;;;3.10;100.00;102860.16;5043725;28;20482;-54
2022/01/23 08:59:34;;;;;;;5.43;4.45;;;;;;;3.16;100.00;102865.06;5038988;28;20044;-53
2022/01/23 09:02:00;;;;;;;8.50;5.65;;;;;;;3.21;100.00;102870.06;5039353;28;20449;-50
2022/01/23 09:04:25;;;;;;;4.88;4.38;;;;;;;3.21;100.00;102867.44;5038844;28;20040;-50
2022/01/23 09:06:50;;;;;;;10.68;6.25;;;;;;;3.24;100.00;102865.47;5041234;28;20028;-54
2022/01/23 09:09:19;;;;;;;5.75;4.82;;;;;;;3.27;100.00;102864.44;5039784;28;20025;-54
2022/01/23 09:14:20;;;;;;;9.55;4.75;;;;;;;3.26;100.00;102865.41;5033860;28;20105;-48
2022/01/23 09:16:46;;;;;;;4.55;3.55;;;;;;;3.27;100.00;102867.91;5036386;28;20033;-53
2022/01/23 09:19:12;;;;;;;4.03;3.30;;;;;;;3.27;100.00;102872.31;5039500;28;20021;-56
2022/01/23 09:21:38;;;;;;;5.85;4.50;;;;;;;3.28;100.00;102869.63;5042099;28;20043;-53
2022/01/23 09:24:05;;;;;;;9.13;5.95;;;;;;;3.31;100.00;102871.22;5038360;28;20036;-51
2022/01/23 09:26:33;;;;;;;5.22;4.07;;;;;;;3.36;100.00;102860.50;5039637;28;20296;-53
2022/01/23 09:29:01;;;;;;;5.65;5.03;;;;;;;3.38;100.00;102863.84;5027378;28;20025;-48
2022/01/23 09:31:48;;;;;;;5.95;4.65;;;;;;;3.38;100.00;102864.72;5037313;28;20052;-56
2022/01/23 09:34:23;;;;;;;6.82;5.55;;;;;;;3.42;100.00;102858.34;5043888;28;20032;-52
2022/01/23 09:36:49;;;;;;;5.55;4.13;;;;;;;3.48;100.00;102858.03;5039004;28;20439;-53
2022/01/23 09:39:16;;;;;;;5.20;3.80;;;;;;;3.50;100.00;102847.44;5034816;28;20486;-53
2022/01/23 09:41:47;;;;;;;6.10;4.65;;;;;;;3.53;100.00;102854.28;5039143;28;20645;-53
2022/01/23 09:44:16;;;;;;;7.53;4.30;;;;;;;3.55;100.00;102853.25;5039050;28;20387;-51
2022/01/23 09:46:44;;;;;;;4.72;4.25;;;;;;;3.57;100.00;102853.19;5018992;28;20033;-53
2022/01/23 09:49:12;;;;;;;4.18;3.50;;;;;;;3.60;100.00;102845.97;5031863;28;20054;-49
2022/01/23 09:51:42;;;;;;;8.20;5.88;;;;;;;3.63;100.00;102843.16;5038081;28;20448;-50
2022/01/23 09:54:10;;;;;;;7.63;4.68;;;;;;;3.65;100.00;102838.69;5038737;28;20033;-48
2022/01/23 09:56:36;;;;;;;5.20;4.60;;;;;;;3.66;100.00;102847.41;5036339;28;20033;-55
2022/01/23 09:59:02;;;;;;;4.57;3.85;;;;;;;3.67;100.00;102838.63;5035116;28;20455;-50
2022/01/23 10:01:27;;;;;;;6.32;5.40;;;;;;;3.67;100.00;102836.84;5034942;28;20025;-51
2022/01/23 10:03:53;;;;;;;6.47;5.05;;;;;;;3.68;100.00;102837.66;5035336;28;20036;-53
2022/01/23 10:06:18;;;;;;;6.78;5.15;;;;;;;3.70;100.00;102839.28;5034778;28;20067;-53
2022/01/23 10:08:44;;;;;;;8.30;5.75;;;;;;;3.73;100.00;102843.50;5034084;28;20374;-51
2022/01/23 10:11:12;;;;;;;8.48;5.85;;;;;;;3.75;100.00;102838.16;5029472;28;20099;-50
2022/01/23 10:13:41;;;;;;;6.25;5.57;;;;;;;3.77;100.00;102836.28;5034762;28;20044;-52
2022/01/23 10:16:07;;;;;;;7.78;5.20;;;;;;;3.79;100.00;102835.25;5037908;28;20075;-51
2022/01/23 10:18:33;;;;;;;9.43;5.53;;;;;;;3.80;100.00;102841.38;5037384;28;20037;-53
2022/01/23 10:20:59;;;;;;;7.32;4.97;;;;;;;3.80;100.00;102844.84;5035268;28;20375;-53
2022/01/23 10:23:25;;;;;;;7.43;6.53;;;;;;;3.81;100.00;102849.13;5036632;28;20024;-51
2022/01/23 10:25:52;;;;;;;7.28;5.20;;;;;;;3.84;100.00;102846.34;5042570;28;20056;-49
2022/01/23 10:28:21;;;;;;;7.72;5.75;;;;;;;3.87;100.00;102840.94;5037025;28;20033;-50
2022/01/23 10:30:49;;;;;;;8.20;6.20;;;;;;;3.89;100.00;102843.44;5039289;28;20498;-53
2022/01/23 10:33:18;;;;;;;7.57;5.65;;;;;;;3.91;100.00;102841.59;5028232;28;20032;-52
2022/01/23 10:36:07;;;;;;;6.15;5.32;;;;;;;3.94;100.00;102846.66;5035726;28;20616;-53
2022/01/23 10:38:52;;;;;;;7.18;4.82;;;;;;;3.98;100.00;102844.72;5037566;28;20032;-49
2022/01/23 10:42:13;;;;;;;8.05;5.30;;;;;;;4.01;100.00;102831.41;5032543;28;20029;-53
2022/01/23 10:50:06;;;;;;;6.80;4.75;;;;;;;4.05;100.00;102839.00;5038523;28;20060;-54
2022/01/23 10:52:35;;;;;;;7.35;5.90;;;;;;;4.07;100.00;102834.47;5037282;28;20684;-52
2022/01/23 10:55:05;;;;;;;6.22;4.95;;;;;;;4.09;100.00;102834.41;5039687;28;20124;-51
2022/01/23 10:57:45;;;;;;;6.35;5.13;;;;;;;4.10;100.00;102829.03;5037523;28;20033;-50
2022/01/23 11:00:25;;;;;;;16.20;7.15;;;;;;;4.13;100.00;102826.25;5041513;28;20033;-54
2022/01/23 11:02:52;;;;;;;6.15;4.88;;;;;;;4.14;100.00;102829.72;5047367;28;20146;-55
2022/01/23 11:05:19;;;;;;;8.27;5.18;;;;;;;4.13;100.00;102830.66;5049527;28;20028;-52
2022/01/23 11:07:48;;;;;;;7.93;6.03;;;;;;;4.14;100.00;102824.47;5043242;28;20550;-52
2022/01/23 11:10:17;;;;;;;5.45;4.88;;;;;;;4.15;100.00;102824.38;5036370;28;20087;-51
2022/01/23 11:18:11;;;;;;;8.20;6.47;;;;;;;4.19;100.00;102818.97;5043819;28;20582;-53
2022/01/23 11:20:47;;;;;;;7.47;5.57;;;;;;;4.19;100.00;102824.22;5047443;28;20476;-51
2022/01/23 11:23:13;;;;;;;10.82;6.82;;;;;;;4.17;100.00;102818.19;5033681;28;20495;-51
2022/01/23 11:25:59;;;;;;;7.32;6.32;;;;;;;4.14;100.00;102814.81;5042387;28;20029;-50
2022/01/23 11:28:38;;;;;;;8.48;5.35;;;;;;;4.16;100.00;102809.47;5028880;28;20045;-55
2022/01/23 11:31:10;;;;;;;10.77;6.65;;;;;;;4.18;100.00;102812.00;5046835;28;20465;-54
2022/01/23 11:33:36;;;;;;;9.80;6.38;;;;;;;4.21;100.00;102809.19;5034807;28;20087;-53
2022/01/23 11:36:04;;;;;;;10.15;7.03;;;;;;;4.21;100.00;102807.44;5042938;28;20515;-53
2022/01/23 11:38:32;;;;;;;7.90;5.55;;;;;;;4.24;100.00;102803.78;5039057;28;20056;-52
2022/01/23 11:54:50;;;;;;;9.25;6.05;;;;;;;4.32;100.00;102783.97;5044508;28;20044;-54
2022/01/23 11:57:35;;;;;;;7.35;4.88;;;;;;;4.32;100.00;102780.50;5044125;28;20143;-51
2022/01/23 12:00:07;;;;;;;13.77;7.22;;;;;;;4.33;100.00;102784.81;5047166;28;20033;-55
2022/01/23 12:02:38;;;;;;;9.43;6.82;;;;;;;4.34;100.00;102778.63;5038453;28;20029;-53
2022/01/23 12:05:17;;;;;;;13.45;9.13;;;;;;;4.37;100.00;102786.31;5044420;28;20041;-53
2022/01/23 12:07:46;;;;;;;8.85;6.50;;;;;;;4.38;100.00;102778.31;5043433;28;20033;-55
2022/01/23 12:10:37;;;;;;;13.15;7.78;;;;;;;4.40;100.00;102778.25;5037401;28;20022;-53
2022/01/23 12:13:22;;;;;;;12.40;7.38;;;;;;;4.42;100.00;102775.53;5048078;28;20076;-49
2022/01/23 12:18:38;;;;;;;7.53;5.63;;;;;;;4.43;100.00;102775.41;5042095;28;20052;-53
2022/01/23 12:21:04;;;;;;;12.10;7.18;;;;;;;4.41;100.00;102772.03;5043382;28;20032;-49
2022/01/23 12:23:59;;;;;;;13.48;9.43;;;;;;;4.41;100.00;102784.34;5041155;28;20129;-53
2022/01/23 12:26:24;;;;;;;9.23;6.82;;;;;;;4.38;100.00;102766.97;5039728;28;20430;-48
2022/01/23 12:28:50;;;;;;;9.98;7.18;;;;;;;4.35;100.00;102756.66;5037624;28;20029;-54
2022/01/23 12:31:15;;;;;;;10.13;6.80;;;;;;;4.38;100.00;102756.47;5040469;28;20028;-53
2022/01/23 12:33:41;;;;;;;12.88;7.60;;;;;;;4.40;100.00;102759.84;5041530;28;20044;-52
2022/01/23 12:36:14;;;;;;;11.75;7.63;;;;;;;4.41;100.00;102755.44;5043356;28;20037;-52
2022/01/23 12:38:43;;;;;;;10.82;7.57;;;;;;;4.41;100.00;102764.16;5040533;28;20032;-51
2022/01/23 12:41:32;;;;;;;10.90;6.65;;;;;;;4.43;100.00;102759.66;5040806;28;20033;-53
2022/01/23 12:44:06;;;;;;;12.23;7.90;;;;;;;4.44;100.00;102758.75;5044661;28;20029;-53
2022/01/23 12:46:39;;;;;;;10.65;7.28;;;;;;;4.41;100.00;102758.91;5042545;28;20511;-52
2022/01/23 12:49:21;;;;;;;15.50;8.93;;;;;;;4.41;100.00;102755.44;5040092;28;20561;-51
2022/01/23 12:51:54;;;;;;;10.30;6.25;;;;;;;4.40;100.00;102759.03;5042419;28;20345;-54
2022/01/23 12:54:26;;;;;;;10.00;6.90;;;;;;;4.38;100.00;102751.22;5039135;28;20448;-52
2022/01/23 12:56:52;;;;;;;10.98;6.75;;;;;;;4.37;100.00;102745.13;5042104;28;20028;-52
2022/01/23 12:59:27;;;;;;;13.93;8.52;;;;;;;4.41;100.00;102739.69;5038996;28;20029;-52
2022/01/23 13:02:00;;;;;;;9.23;6.97;;;;;;;4.42;100.00;102734.34;5045542;28;20132;-54
2022/01/23 13:04:39;;;;;;;11.98;8.48;;;;;;;4.45;100.00;102728.06;5031665;28;20047;-53
2022/01/23 13:07:21;;;;;;;14.23;8.70;;;;;;;4.44;100.00;102724.59;5035006;28;20038;-50
2022/01/23 13:10:02;;;;;;;16.75;9.90;;;;;;;4.43;100.00;102720.25;5043533;28;20124;-52
2022/01/23 13:32:12;;;;;;;11.48;7.68;;;;;;;4.35;100.00;102668.22;5027236;28;20033;-52
2022/01/23 13:34:41;;;;;;;12.25;7.45;;;;;;;4.36;100.00;102672.53;5031988;28;20102;-55
2022/01/23 13:37:12;;;;;;;11.07;6.88;;;;;;;4.40;100.00;102667.91;5038578;28;20477;-53
2022/01/23 13:39:49;;;;;;;9.48;6.05;;;;;;;4.40;100.00;102669.72;5032734;28;20040;-54
2022/01/23 13:48:18;;;;;;;11.25;6.88;;;;;;;4.39;100.00;102674.13;5037289;28;20043;-52
2022/01/23 13:59:27;;;;;;;11.80;7.75;;;;;;;4.34;100.00;102669.16;5037049;28;20059;-51
2022/01/23 14:04:22;;;;;;;13.00;8.63;;;;;;;4.32;100.00;102664.94;5046956;28;20462;-55
2022/01/23 14:06:49;;;;;;;11.00;7.78;;;;;;;4.30;100.00;102664.19;5033164;28;20124;-54
2022/01/23 14:09:16;;;;;;;12.75;7.85;;;;;;;4.28;100.00;102660.81;5045185;28;20074;-52
2022/01/23 14:11:43;;;;;;;10.60;7.00;;;;;;;4.26;100.00;102646.94;5028918;28;20603;-51
2022/01/23 14:14:16;;;;;;;11.00;7.45;;;;;;;4.24;100.00;102648.81;5046254;28;20038;-53
2022/01/23 14:16:43;;;;;;;23.45;11.27;;;;;;;4.20;100.00;102647.31;5040406;28;20589;-53
2022/01/23 14:19:14;;;;;;;24.15;11.27;;;;;;;4.23;100.00;102649.75;5040317;28;20509;-53
2022/01/23 14:21:40;;;;;;;;;;;;;;;4.22;100.00;102643.66;5034287;28;20491;-52
2022/01/23 14:24:06;;;;;;;49.35;20.17;;;;;;;4.22;100.00;102646.28;5024437;28;20367;-52
2022/01/23 14:26:31;;;;;;;47.05;18.75;;;;;;;4.23;100.00;102644.50;5045195;28;20029;-53
2022/01/23 14:29:04;;;;;;;28.25;12.82;;;;;;;4.24;100.00;102649.66;5041286;28;20041;-50
2022/01/23 14:31:36;;;;;;;18.40;9.20;;;;;;;4.23;100.00;102647.13;5033060;28;20064;-53
2022/01/23 14:34:05;;;;;;;16.20;10.07;;;;;;;4.23;100.00;102652.38;5041528;28;20443;-50
2022/01/23 14:36:38;;;;;;;14.40;9.05;;;;;;;4.21;100.00;102641.13;5048007;28;20485;-52
2022/01/23 14:39:12;;;;;;;17.58;10.57;;;;;;;4.18;100.00;102641.31;5052898;28;20033;-51
2022/01/23 14:41:44;;;;;;;15.10;9.50;;;;;;;4.15;100.00;102635.31;5040787;28;20032;-53
2022/01/23 14:44:25;;;;;;;13.63;9.13;;;;;;;4.17;100.00;102642.28;5053185;28;20108;-50
2022/01/23 14:46:55;;;;;;;16.17;9.35;;;;;;;4.17;100.00;102645.72;5052370;28;20107;-55
2022/01/23 14:49:24;;;;;;;17.60;8.60;;;;;;;4.15;100.00;102640.56;5052086;28;20029;-52
2022/01/23 14:51:52;;;;;;;14.45;9.35;;;;;;;4.13;100.00;102631.97;5048759;28;20108;-56
2022/01/23 14:54:19;;;;;;;16.27;9.38;;;;;;;4.13;100.00;102634.59;5053017;28;20486;-49
2022/01/23 14:56:44;;;;;;;14.20;8.63;;;;;;;4.11;100.00;102638.25;5051543;28;20035;-54
2022/01/23 14:59:10;;;;;;;16.48;9.82;;;;;;;4.09;100.00;102633.09;5045184;28;20657;-53
2022/01/23 15:01:37;;;;;;;15.43;9.50;;;;;;;4.08;100.00;102635.78;5043522;28;20159;-53